DFOL weather

Loumana Airport
Loumana, Comoe, Burkina Faso

Public forecast

Using degrees Celsius for public forecast. Weather courtesy of forecast.io.

METAR (pilot weather report)

Report is more than 6 hours old.

Closest report is Sikasso Airport, 50.4 nm (93.4 km) NNW. Retrieved 2018/10/25 17:10 UTC (5 months ago):

GASK 251710Z 12018KT 7000 TSRA FEW020 FEW30CB 34/20 Q//// ORAGE ET PLUIE A LA STATION

TAF (pilot weather forecast)

Closest forecast is Bobo Dioulasso Airport, 69.8 nm (129.4 km) ENE. Retrieved 2019/03/19 06:21 UTC (1 hour ago):

TAF DFOO 190500Z 1906/2006 18007KT 8000 NSC PROB30 TEMPO 1906/1912 4000 RA PROB30 TEMPO 1914/1922 4000 TSRA SCT020 FEW036CB